createdAt,value
2018-04-29T00:00:58.550Z,3.30
2018-04-29T00:03:32.871Z,3.10
2018-04-29T00:06:07.140Z,3.30
2018-04-29T00:08:42.199Z,3.20
2018-04-29T00:11:16.564Z,3.47
2018-04-29T00:13:50.854Z,3.20
2018-04-29T00:16:25.099Z,3.57
2018-04-29T00:19:00.152Z,3.20
2018-04-29T00:21:34.586Z,3.53
2018-04-29T00:24:09.578Z,3.00
2018-04-29T00:44:46.195Z,3.23
2018-04-29T00:47:20.507Z,3.23
2018-04-29T00:49:54.823Z,3.63
2018-04-29T00:52:29.220Z,3.30
2018-04-29T00:55:03.535Z,3.30
2018-04-29T00:57:37.926Z,3.07
2018-04-29T01:00:12.200Z,3.23
2018-04-29T01:02:46.934Z,2.97
2018-04-29T01:05:21.951Z,3.30
2018-04-29T01:07:50.177Z,3.33
2018-04-29T01:10:18.284Z,3.27
2018-04-29T01:12:46.476Z,3.60
2018-04-29T01:15:14.581Z,3.83
2018-04-29T01:17:42.721Z,3.77
2018-04-29T01:20:10.827Z,3.80
2018-04-29T01:22:38.962Z,3.97
2018-04-29T01:43:09.775Z,4.70
2018-04-29T01:45:37.966Z,5.83
2018-04-29T01:48:06.096Z,4.90
2018-04-29T01:50:34.264Z,5.10
2018-04-29T01:53:02.523Z,4.97
2018-04-29T01:55:31.041Z,5.43
2018-04-29T01:57:59.379Z,5.60
2018-04-29T02:00:28.572Z,4.63
2018-04-29T02:02:56.992Z,4.77
2018-04-29T02:05:26.156Z,5.57
2018-04-29T02:07:54.490Z,5.27
2018-04-29T02:10:23.611Z,5.57
2018-04-29T02:12:51.992Z,5.70
2018-04-29T02:15:20.375Z,5.60
2018-04-29T02:17:48.732Z,5.80
2018-04-29T02:20:17.064Z,5.83
2018-04-29T02:22:45.457Z,5.13
2018-04-29T02:43:16.397Z,5.50
2018-04-29T02:45:45.031Z,6.70
2018-04-29T02:48:13.399Z,6.10
2018-04-29T02:50:41.793Z,6.37
2018-04-29T02:53:10.150Z,6.20
2018-04-29T02:55:38.533Z,7.00
2018-04-29T02:58:06.893Z,7.60
2018-04-29T03:00:35.252Z,7.53
2018-04-29T03:03:03.675Z,6.70
2018-04-29T03:05:32.059Z,7.83
2018-04-29T03:08:00.399Z,8.20
2018-04-29T03:10:28.759Z,7.90
2018-04-29T03:12:57.143Z,7.53
2018-04-29T03:15:25.531Z,8.27
2018-04-29T03:17:53.891Z,7.47
2018-04-29T03:20:23.026Z,7.80
2018-04-29T03:22:51.418Z,8.40
2018-04-29T03:43:21.589Z,8.50
2018-04-29T03:45:49.935Z,7.93
2018-04-29T03:48:18.646Z,8.40
2018-04-29T03:50:47.030Z,8.27
2018-04-29T03:53:15.424Z,8.10
2018-04-29T03:55:43.804Z,8.13
2018-04-29T03:58:23.954Z,8.33
2018-04-29T04:01:04.044Z,8.40
2018-04-29T04:03:44.294Z,7.60
2018-04-29T04:06:12.944Z,7.83
2018-04-29T04:08:41.356Z,8.60
2018-04-29T04:11:09.768Z,8.17
2018-04-29T04:13:38.145Z,7.67
2018-04-29T04:16:06.506Z,8.80
2018-04-29T04:18:34.885Z,7.83
2018-04-29T04:21:03.227Z,7.90
2018-04-29T04:23:31.590Z,8.00
2018-04-29T04:44:02.913Z,7.47
2018-04-29T04:46:31.313Z,7.50
2018-04-29T04:48:59.684Z,7.10
2018-04-29T04:51:28.812Z,7.10
2018-04-29T04:53:57.155Z,6.70
2018-04-29T04:56:25.516Z,6.90
2018-04-29T04:58:53.909Z,6.87
2018-04-29T05:01:22.243Z,7.03
2018-04-29T05:03:50.625Z,6.87
2018-04-29T05:06:19.011Z,7.83
2018-04-29T05:08:47.356Z,8.37
2018-04-29T05:11:16.496Z,7.50
2018-04-29T05:13:44.914Z,7.83
2018-04-29T05:16:13.296Z,8.03
2018-04-29T05:18:41.671Z,8.30
2018-04-29T05:21:10.273Z,8.37
2018-04-29T05:23:38.671Z,8.10
2018-04-29T05:44:11.265Z,7.90
2018-04-29T06:03:14.897Z,7.50
2018-04-29T06:21:38.037Z,7.00
2018-04-29T06:24:23.293Z,7.93
2018-04-29T06:33:35.577Z,6.87
2018-04-29T08:36:23.108Z,4.20
2018-04-29T09:34:18.649Z,4.03
2018-04-29T09:36:48.089Z,4.27
2018-04-29T09:45:45.421Z,4.50
2018-04-29T09:48:14.924Z,4.00
2018-04-29T09:53:58.262Z,4.20
2018-04-29T10:23:21.764Z,4.47
2018-04-29T10:25:50.176Z,4.43
2018-04-29T10:28:19.989Z,4.47
2018-04-29T10:30:55.090Z,4.63
2018-04-29T10:33:31.084Z,3.77
2018-04-29T10:36:01.451Z,4.27
2018-04-29T10:38:31.796Z,4.50
2018-04-29T10:41:00.551Z,4.43
2018-04-29T10:43:30.512Z,4.07
2018-04-29T10:46:01.288Z,4.20
2018-04-29T10:48:30.021Z,4.03
2018-04-29T10:50:58.780Z,3.83
2018-04-29T10:53:27.357Z,4.00
2018-04-29T10:55:56.598Z,4.07
2018-04-29T10:58:25.121Z,4.03
2018-04-29T11:07:49.208Z,3.30
2018-04-29T11:13:33.107Z,3.07
2018-04-29T11:25:12.182Z,3.20
2018-04-29T11:27:42.288Z,3.27
2018-04-29T11:30:10.700Z,2.17
2018-04-29T11:32:39.176Z,3.40
2018-04-29T11:35:07.636Z,3.03
2018-04-29T11:37:36.065Z,3.03
2018-04-29T11:40:04.602Z,2.77
2018-04-29T11:42:34.430Z,3.10
2018-04-29T11:45:04.192Z,2.90
2018-04-29T11:47:34.095Z,2.70
2018-04-29T11:50:02.532Z,2.60
2018-04-29T11:52:37.467Z,3.30
2018-04-29T11:55:05.952Z,2.90
2018-04-29T12:00:15.950Z,2.50
2018-04-29T12:02:44.815Z,2.73
2018-04-29T12:05:13.359Z,2.37
2018-04-29T12:07:43.506Z,2.57
2018-04-29T12:10:12.874Z,2.90
2018-04-29T12:15:18.366Z,2.87
2018-04-29T12:17:46.781Z,2.97
2018-04-29T12:38:15.832Z,2.53
2018-04-29T12:40:44.230Z,2.57
2018-04-29T12:43:12.605Z,2.63
2018-04-29T12:45:43.832Z,2.70
2018-04-29T12:48:14.929Z,2.27
2018-04-29T12:50:47.273Z,2.50
2018-04-29T12:53:15.665Z,2.50
2018-04-29T12:55:44.083Z,2.47
2018-04-29T12:58:12.488Z,2.40
2018-04-29T13:00:40.858Z,2.33
2018-04-29T13:03:09.375Z,2.53
2018-04-29T13:05:37.847Z,2.30
2018-04-29T13:08:06.249Z,2.40
2018-04-29T13:10:34.632Z,2.50
2018-04-29T13:13:03.067Z,2.20
2018-04-29T13:15:31.476Z,2.40
2018-04-29T13:17:59.869Z,2.60
2018-04-29T13:38:29.922Z,2.63
2018-04-29T13:40:58.326Z,2.63
2018-04-29T13:43:26.756Z,2.50
2018-04-29T13:45:55.100Z,2.53
2018-04-29T13:48:23.501Z,2.33
2018-04-29T13:50:52.131Z,2.30
2018-04-29T13:53:20.532Z,2.60
2018-04-29T13:55:48.884Z,2.30
2018-04-29T13:58:17.251Z,2.67
2018-04-29T14:00:45.647Z,2.20
2018-04-29T14:03:14.306Z,2.37
2018-04-29T14:05:43.452Z,2.70
2018-04-29T14:08:11.809Z,2.53
2018-04-29T14:10:40.959Z,2.50
2018-04-29T14:13:09.350Z,2.20
2018-04-29T14:15:37.803Z,2.37
2018-04-29T14:18:06.139Z,2.80
2018-04-29T14:20:34.535Z,2.70
2018-04-29T14:23:02.869Z,2.67
2018-04-29T14:25:31.272Z,2.47
2018-04-29T14:27:59.703Z,2.40
2018-04-29T14:30:28.079Z,2.73
2018-04-29T14:32:56.416Z,2.13
2018-04-29T14:35:24.833Z,2.80
2018-04-29T14:37:53.225Z,2.67
2018-04-29T14:40:21.548Z,2.00
2018-04-29T14:42:49.921Z,2.37
2018-04-29T14:45:18.307Z,2.30
2018-04-29T14:47:46.937Z,2.30
2018-04-29T14:50:15.253Z,2.20
2018-04-29T14:52:44.339Z,2.10
2018-04-29T14:55:12.717Z,2.83
2018-04-29T14:57:41.121Z,2.50
2018-04-29T15:00:09.727Z,2.70
2018-04-29T15:02:38.022Z,2.40
2018-04-29T15:05:06.332Z,2.73
2018-04-29T15:07:34.706Z,2.90
2018-04-29T15:10:02.999Z,2.37
2018-04-29T15:12:32.108Z,2.60
2018-04-29T15:15:00.404Z,2.33
2018-04-29T15:17:28.793Z,2.57
2018-04-29T15:19:58.088Z,2.57
2018-04-29T15:22:26.486Z,2.43
2018-04-29T15:24:54.819Z,2.57
2018-04-29T15:27:23.253Z,2.40
2018-04-29T15:29:51.793Z,2.50
2018-04-29T15:32:20.115Z,2.60
2018-04-29T15:34:49.045Z,2.50
2018-04-29T15:37:18.188Z,2.53
2018-04-29T15:39:46.605Z,2.30
2018-04-29T15:42:14.982Z,2.40
2018-04-29T15:44:43.369Z,2.73
2018-04-29T15:47:11.720Z,2.57
2018-04-29T15:49:40.078Z,2.70
2018-04-29T15:52:09.223Z,2.33
2018-04-29T15:54:37.595Z,2.70
2018-04-29T15:57:06.643Z,2.97
2018-04-29T15:59:35.013Z,2.90
2018-04-29T16:02:04.160Z,2.97
2018-04-29T16:04:33.309Z,2.47
2018-04-29T16:07:01.661Z,2.50
2018-04-29T16:09:30.069Z,3.37
2018-04-29T16:11:58.462Z,2.60
2018-04-29T16:14:27.694Z,2.27
2018-04-29T16:16:56.874Z,2.93
2018-04-29T16:37:25.612Z,2.70
2018-04-29T16:39:54.740Z,2.43
2018-04-29T16:42:23.102Z,2.10
2018-04-29T16:44:51.451Z,2.20
2018-04-29T16:47:19.802Z,2.70
2018-04-29T16:49:48.961Z,2.90
2018-04-29T16:52:17.308Z,2.37
2018-04-29T16:54:46.432Z,2.10
2018-04-29T16:57:15.566Z,2.30
2018-04-29T16:59:43.901Z,2.70
2018-04-29T17:02:12.244Z,3.07
2018-04-29T17:04:40.624Z,3.00
2018-04-29T17:07:08.950Z,2.10
2018-04-29T17:09:38.004Z,2.40
2018-04-29T17:12:06.308Z,2.43
2018-04-29T17:14:35.591Z,2.07
2018-04-29T17:17:04.015Z,2.47
2018-04-29T17:19:44.975Z,2.50
2018-04-29T17:22:13.274Z,2.30
2018-04-29T17:24:41.648Z,2.30
2018-04-29T17:27:10.057Z,2.27
2018-04-29T17:29:39.183Z,2.33
2018-04-29T17:32:08.347Z,2.47
2018-04-29T17:34:37.958Z,2.83
2018-04-29T17:37:08.199Z,2.30
2018-04-29T17:39:37.080Z,2.47
2018-04-29T17:42:05.683Z,2.23
2018-04-29T17:44:34.041Z,2.67
2018-04-29T17:47:02.391Z,2.63
2018-04-29T17:49:30.791Z,2.33
2018-04-29T17:51:59.960Z,2.33
2018-04-29T17:54:28.329Z,2.37
2018-04-29T17:56:56.708Z,2.47
2018-04-29T17:59:25.876Z,2.40
2018-04-29T18:01:54.277Z,2.40
2018-04-29T18:04:23.876Z,2.37
2018-04-29T18:06:52.274Z,2.70
2018-04-29T18:09:20.685Z,2.20
2018-04-29T18:11:49.071Z,2.73
2018-04-29T18:14:17.607Z,2.90
2018-04-29T18:16:45.987Z,2.70
2018-04-29T18:34:14.632Z,2.90
2018-04-29T18:36:43.038Z,2.77
2018-04-29T18:39:11.387Z,2.80
2018-04-29T18:41:39.750Z,2.90
2018-04-29T18:44:08.164Z,2.90
2018-04-29T18:46:36.566Z,2.83
2018-04-29T18:49:04.953Z,2.60
2018-04-29T18:51:34.332Z,2.40
2018-04-29T18:54:02.545Z,3.03
2018-04-29T18:56:30.952Z,2.60
2018-04-29T18:58:59.365Z,2.53
2018-04-29T19:01:27.716Z,3.13
2018-04-29T19:03:56.085Z,2.43
2018-04-29T19:06:24.486Z,2.80
2018-04-29T19:08:53.611Z,2.73
2018-04-29T19:11:21.931Z,2.80
2018-04-29T19:13:50.297Z,2.87
2018-04-29T19:16:19.031Z,2.57
2018-04-29T19:18:47.680Z,2.73
2018-04-29T19:21:16.050Z,3.10
2018-04-29T19:23:44.419Z,2.97
2018-04-29T19:26:13.509Z,3.23
2018-04-29T19:28:41.890Z,3.17
2018-04-29T19:31:11.041Z,2.90
2018-04-29T19:33:39.417Z,2.43
2018-04-29T19:36:07.809Z,2.93
2018-04-29T19:38:36.271Z,3.17
2018-04-29T19:41:04.557Z,3.40
2018-04-29T19:43:32.898Z,3.00
2018-04-29T19:46:01.288Z,3.00
2018-04-29T19:48:30.481Z,3.13
2018-04-29T19:50:58.856Z,3.10
2018-04-29T19:53:27.478Z,2.80
2018-04-29T19:55:55.841Z,2.90
2018-04-29T19:58:24.248Z,3.17
2018-04-29T20:00:52.662Z,3.40
2018-04-29T20:03:21.790Z,3.10
2018-04-29T20:05:50.971Z,2.97
2018-04-29T20:08:19.361Z,3.53
2018-04-29T20:10:47.867Z,3.10
2018-04-29T20:13:16.350Z,3.13
2018-04-29T20:15:44.772Z,3.10
2018-04-29T20:18:13.189Z,3.03
2018-04-29T20:23:53.430Z,3.07
2018-04-29T20:26:21.852Z,3.30
2018-04-29T20:28:50.203Z,3.13
2018-04-29T20:31:19.360Z,3.40
2018-04-29T20:33:47.710Z,3.33
2018-04-29T20:36:16.035Z,3.00
2018-04-29T20:38:44.434Z,3.10
2018-04-29T20:41:12.839Z,3.17
2018-04-29T20:43:41.213Z,3.10
2018-04-29T20:46:09.590Z,2.73
2018-04-29T20:48:37.964Z,3.30
2018-04-29T20:51:06.321Z,2.93
2018-04-29T20:53:34.720Z,3.27
2018-04-29T20:56:03.140Z,3.10
2018-04-29T20:58:32.257Z,2.90
2018-04-29T21:01:00.598Z,2.90
2018-04-29T21:03:28.943Z,3.03
2018-04-29T21:05:57.300Z,3.23
2018-04-29T21:08:25.628Z,3.13
2018-04-29T21:10:54.733Z,3.20
2018-04-29T21:13:23.875Z,3.20
2018-04-29T21:15:52.759Z,3.40
2018-04-29T21:18:21.120Z,3.30
2018-04-29T21:20:49.455Z,3.13
2018-04-29T21:23:17.831Z,3.40
2018-04-29T21:25:46.198Z,3.03
2018-04-29T21:28:14.561Z,3.13
2018-04-29T21:30:42.896Z,2.80
2018-04-29T21:33:11.269Z,2.53
2018-04-29T21:35:40.592Z,3.30
2018-04-29T21:38:08.959Z,3.43
2018-04-29T21:40:37.273Z,3.23
2018-04-29T21:43:05.633Z,2.83
2018-04-29T21:45:34.014Z,3.47
2018-04-29T21:48:03.156Z,3.73
2018-04-29T21:50:31.491Z,3.13
2018-04-29T21:52:59.807Z,3.47
2018-04-29T21:55:28.292Z,3.83
2018-04-29T21:57:56.663Z,3.17
2018-04-29T22:00:24.987Z,3.53
2018-04-29T22:02:53.331Z,3.40
2018-04-29T22:05:22.454Z,3.50
2018-04-29T22:07:50.815Z,3.50
2018-04-29T22:10:20.080Z,3.40
2018-04-29T22:12:48.452Z,3.30
2018-04-29T22:15:16.795Z,3.87
2018-04-29T22:17:45.125Z,3.90
2018-04-29T22:20:25.203Z,3.80
2018-04-29T22:22:53.550Z,4.10
2018-04-29T22:25:22.164Z,3.80
2018-04-29T22:27:51.303Z,3.50
2018-04-29T22:30:19.655Z,3.50
2018-04-29T22:32:48.052Z,3.13
2018-04-29T22:35:16.349Z,3.00
2018-04-29T22:37:44.675Z,3.10
2018-04-29T22:40:12.994Z,2.77
2018-04-29T22:42:41.386Z,2.60
2018-04-29T22:45:10.496Z,3.10
2018-04-29T22:47:38.815Z,2.73
2018-04-29T22:50:07.114Z,2.60
2018-04-29T22:52:35.464Z,3.10
2018-04-29T22:55:03.901Z,3.50
2018-04-29T22:57:32.209Z,3.07
2018-04-29T23:00:00.595Z,3.13
2018-04-29T23:02:28.968Z,3.00
2018-04-29T23:04:57.880Z,2.80
2018-04-29T23:07:26.258Z,3.40
2018-04-29T23:09:54.706Z,2.30
2018-04-29T23:12:23.028Z,2.23
2018-04-29T23:14:51.367Z,1.83
2018-04-29T23:17:19.830Z,1.40
2018-04-29T23:23:09.484Z,1.27
2018-04-29T23:25:37.828Z,1.07
2018-04-29T23:28:06.144Z,1.50
2018-04-29T23:30:34.453Z,1.20
2018-04-29T23:33:02.859Z,1.30
2018-04-29T23:35:31.192Z,1.20
2018-04-29T23:38:00.290Z,1.43
2018-04-29T23:40:29.390Z,0.90
2018-04-29T23:42:58.072Z,1.30
2018-04-29T23:45:26.425Z,1.20
2018-04-29T23:47:54.806Z,1.50
2018-04-29T23:50:23.127Z,0.80
2018-04-29T23:52:51.480Z,1.07
2018-04-29T23:55:20.080Z,1.10
2018-04-29T23:57:48.427Z,1.10
